createdAt,value
2018-01-17T00:00:21.368Z,17.27
2018-01-17T00:02:48.776Z,17.30
2018-01-17T00:05:16.190Z,17.00
2018-01-17T00:07:43.592Z,18.30
2018-01-17T00:10:11.017Z,16.47
2018-01-17T00:12:38.421Z,17.97
2018-01-17T00:15:05.841Z,18.40
2018-01-17T00:17:33.254Z,15.70
2018-01-17T00:20:00.674Z,15.50
2018-01-17T00:22:40.128Z,15.40
2018-01-17T00:25:07.541Z,15.30
2018-01-17T00:27:34.965Z,14.75
2018-01-17T00:30:02.395Z,15.07
2018-01-17T00:32:29.813Z,14.52
2018-01-17T00:34:57.253Z,15.27
2018-01-17T00:37:24.662Z,14.40
2018-01-17T00:39:52.080Z,14.63
2018-01-17T00:42:19.498Z,14.30
2018-01-17T00:44:46.920Z,14.35
2018-01-17T00:47:14.345Z,13.82
2018-01-17T00:49:41.773Z,13.70
2018-01-17T00:52:09.192Z,14.93
2018-01-17T00:54:36.636Z,13.77
2018-01-17T00:57:04.061Z,13.75
2018-01-17T00:59:31.494Z,14.52
2018-01-17T01:01:58.909Z,12.80
2018-01-17T01:04:26.325Z,14.38
2018-01-17T01:06:53.748Z,12.85
2018-01-17T01:09:21.165Z,12.68
2018-01-17T01:11:48.593Z,13.65
2018-01-17T01:14:16.009Z,12.40
2018-01-17T01:16:43.423Z,12.45
2018-01-17T01:19:10.846Z,13.00
2018-01-17T01:21:38.261Z,13.48
2018-01-17T01:24:05.693Z,12.88
2018-01-17T01:26:33.108Z,12.80
2018-01-17T01:29:00.533Z,13.45
2018-01-17T01:31:27.957Z,12.73
2018-01-17T01:33:55.393Z,12.87
2018-01-17T01:36:22.816Z,13.30
2018-01-17T01:38:50.228Z,14.55
2018-01-17T01:41:17.644Z,14.30
2018-01-17T01:43:45.085Z,13.93
2018-01-17T01:46:12.505Z,14.10
2018-01-17T01:48:51.728Z,14.17
2018-01-17T01:51:19.146Z,13.68
2018-01-17T01:53:46.561Z,14.10
2018-01-17T01:56:13.993Z,14.75
2018-01-17T01:58:41.401Z,14.38
2018-01-17T02:01:08.843Z,14.60
2018-01-17T02:03:36.249Z,14.75
2018-01-17T02:06:03.664Z,15.43
2018-01-17T02:08:31.076Z,14.98
2018-01-17T02:10:58.486Z,14.87
2018-01-17T02:13:25.908Z,15.98
2018-01-17T02:15:53.325Z,15.40
2018-01-17T02:18:20.748Z,16.17
2018-01-17T02:20:48.173Z,15.45
2018-01-17T02:23:15.592Z,17.33
2018-01-17T02:25:43.016Z,16.50
2018-01-17T02:28:10.437Z,17.00
2018-01-17T02:30:37.850Z,16.90
2018-01-17T02:33:05.282Z,16.27
2018-01-17T02:35:32.691Z,16.30
2018-01-17T02:38:00.104Z,15.00
2018-01-17T02:40:39.244Z,15.98
2018-01-17T02:43:06.654Z,17.00
2018-01-17T02:45:34.080Z,15.85
2018-01-17T02:48:01.501Z,16.75
2018-01-17T02:50:28.908Z,15.97
2018-01-17T02:52:56.360Z,15.18
2018-01-17T02:55:23.769Z,15.43
2018-01-17T02:57:51.169Z,14.93
2018-01-17T03:00:19.096Z,15.73
2018-01-17T03:02:46.505Z,15.97
2018-01-17T03:05:13.916Z,16.17
2018-01-17T03:07:41.352Z,15.43
2018-01-17T03:10:08.761Z,15.00
2018-01-17T03:12:36.173Z,15.60
2018-01-17T03:15:03.940Z,15.60
2018-01-17T03:17:31.363Z,16.08
2018-01-17T03:19:58.773Z,15.38
2018-01-17T03:22:26.769Z,15.60
2018-01-17T03:24:54.183Z,15.10
2018-01-17T03:27:21.600Z,16.12
2018-01-17T03:29:49.025Z,15.10
2018-01-17T03:32:16.444Z,15.60
2018-01-17T03:34:43.869Z,14.55
2018-01-17T03:37:11.284Z,16.47
2018-01-17T03:39:38.705Z,15.23
2018-01-17T03:42:06.145Z,14.55
2018-01-17T03:44:33.934Z,15.20
2018-01-17T03:47:01.354Z,14.93
2018-01-17T03:49:28.772Z,15.10
2018-01-17T03:51:56.514Z,14.25
2018-01-17T03:54:23.938Z,14.77
2018-01-17T03:56:51.350Z,13.90
2018-01-17T03:59:18.774Z,14.00
2018-01-17T04:01:46.189Z,14.40
2018-01-17T04:04:13.594Z,14.50
2018-01-17T04:06:41.029Z,14.13
2018-01-17T04:09:08.434Z,15.27
2018-01-17T04:11:35.845Z,13.88
2018-01-17T04:14:03.285Z,13.98
2018-01-17T04:16:30.705Z,13.88
2018-01-17T04:18:58.132Z,15.23
2018-01-17T04:21:25.584Z,13.50
2018-01-17T04:23:52.988Z,12.73
2018-01-17T04:26:20.396Z,13.30
2018-01-17T04:28:47.832Z,12.85
2018-01-17T04:31:15.245Z,12.60
2018-01-17T04:33:42.663Z,13.23
2018-01-17T04:36:10.082Z,12.85
2018-01-17T04:38:37.509Z,12.90
2018-01-17T04:41:04.916Z,12.57
2018-01-17T04:43:32.638Z,13.68
2018-01-17T04:46:00.048Z,12.85
2018-01-17T04:48:27.453Z,12.48
2018-01-17T04:50:54.877Z,11.85
2018-01-17T04:53:22.289Z,12.60
2018-01-17T04:55:49.696Z,12.55
2018-01-17T04:58:17.108Z,13.32
2018-01-17T05:00:44.530Z,13.50
2018-01-17T05:03:11.937Z,13.73
2018-01-17T05:05:39.360Z,13.75
2018-01-17T05:08:06.768Z,13.70
2018-01-17T05:10:34.181Z,13.60
2018-01-17T05:13:01.601Z,13.70
2018-01-17T05:15:29.021Z,14.70
2018-01-17T05:17:56.428Z,13.95
2018-01-17T05:20:24.257Z,14.02
2018-01-17T05:22:51.665Z,15.20
2018-01-17T05:25:19.078Z,14.77
2018-01-17T05:27:46.494Z,13.90
2018-01-17T05:30:13.903Z,14.13
2018-01-17T05:32:41.308Z,15.88
2018-01-17T05:35:08.732Z,15.23
2018-01-17T05:37:36.141Z,13.95
2018-01-17T05:40:03.548Z,14.73
2018-01-17T05:42:30.972Z,15.18
2018-01-17T05:44:58.380Z,14.38
2018-01-17T05:47:25.789Z,13.80
2018-01-17T05:49:53.209Z,13.90
2018-01-17T05:52:20.643Z,14.15
2018-01-17T05:54:48.062Z,14.93
2018-01-17T05:57:15.477Z,13.90
2018-01-17T05:59:42.891Z,13.80
2018-01-17T06:02:10.297Z,13.48
2018-01-17T06:04:37.736Z,14.02
2018-01-17T06:07:05.142Z,13.50
2018-01-17T06:09:32.549Z,13.60
2018-01-17T06:11:59.969Z,13.43
2018-01-17T06:14:27.378Z,12.93
2018-01-17T06:16:54.785Z,11.93
2018-01-17T06:19:22.207Z,11.93
2018-01-17T06:21:49.622Z,12.32
2018-01-17T06:24:17.033Z,12.10
2018-01-17T06:26:44.459Z,12.30
2018-01-17T06:29:11.869Z,12.43
2018-01-17T06:31:39.280Z,12.30
2018-01-17T06:34:06.789Z,12.25
2018-01-17T06:36:34.206Z,12.55
2018-01-17T06:39:01.612Z,11.50
2018-01-17T06:41:29.042Z,12.18
2018-01-17T06:43:56.453Z,12.35
2018-01-17T06:46:23.872Z,12.63
2018-01-17T06:48:51.573Z,12.77
2018-01-17T06:51:18.988Z,12.15
2018-01-17T06:53:46.397Z,11.80
2018-01-17T06:56:13.834Z,13.48
2018-01-17T06:58:41.240Z,13.45
2018-01-17T07:01:08.657Z,13.35
2018-01-17T07:03:36.086Z,13.55
2018-01-17T07:06:03.516Z,14.27
2018-01-17T07:08:30.925Z,13.23
2018-01-17T07:10:58.789Z,14.05
2018-01-17T07:13:26.211Z,15.70
2018-01-17T07:15:53.620Z,15.07
2018-01-17T07:18:21.042Z,13.82
2018-01-17T07:20:48.459Z,15.23
2018-01-17T07:23:15.870Z,17.85
2018-01-17T07:25:43.634Z,14.13
2018-01-17T07:28:11.038Z,14.35
2018-01-17T07:30:38.448Z,13.68
2018-01-17T07:33:05.868Z,14.30
2018-01-17T07:35:33.287Z,12.98
2018-01-17T07:38:00.692Z,13.27
2018-01-17T07:40:28.110Z,12.40
2018-01-17T07:42:55.531Z,11.55
2018-01-17T07:45:22.937Z,11.25
2018-01-17T07:47:50.353Z,11.68
2018-01-17T07:50:17.761Z,11.88
2018-01-17T07:52:45.165Z,10.40
2018-01-17T07:55:12.588Z,11.77
2018-01-17T07:57:39.997Z,11.57
2018-01-17T08:00:07.409Z,15.20
2018-01-17T08:02:34.833Z,12.05
2018-01-17T08:05:02.271Z,11.35
2018-01-17T08:07:29.656Z,12.18
2018-01-17T08:09:57.085Z,12.68
2018-01-17T08:12:24.493Z,12.40
2018-01-17T08:14:51.900Z,12.48
2018-01-17T08:17:19.332Z,13.20
2018-01-17T08:19:46.741Z,14.30
2018-01-17T08:22:14.164Z,15.10
2018-01-17T08:24:41.636Z,13.40
2018-01-17T08:27:09.022Z,14.00
2018-01-17T08:29:36.434Z,15.05
2018-01-17T08:32:03.902Z,17.05
2018-01-17T08:34:31.465Z,15.45
2018-01-17T08:36:58.968Z,16.15
2018-01-17T08:39:26.392Z,17.33
2018-01-17T08:41:53.830Z,15.95
2018-01-17T08:44:21.868Z,17.42
2018-01-17T08:46:49.293Z,16.80
2018-01-17T08:49:16.849Z,16.23
2018-01-17T08:51:44.273Z,16.85
2018-01-17T08:54:11.693Z,15.93
2018-01-17T08:56:39.113Z,14.77
2018-01-17T08:59:06.525Z,15.65
2018-01-17T09:01:33.957Z,14.40
2018-01-17T09:04:01.369Z,15.50
2018-01-17T09:06:28.785Z,15.18
2018-01-17T09:08:56.223Z,14.20
2018-01-17T09:11:23.632Z,15.80
2018-01-17T09:13:51.033Z,18.37
2018-01-17T09:16:18.467Z,16.67
2018-01-17T09:18:45.899Z,15.60
2018-01-17T09:21:13.308Z,15.50
2018-01-17T09:23:40.725Z,15.07
2018-01-17T09:26:08.134Z,19.67
2018-01-17T09:28:35.547Z,16.12
2018-01-17T09:31:03.294Z,16.62
2018-01-17T09:33:30.700Z,16.17
2018-01-17T09:35:58.109Z,14.95
2018-01-17T09:38:25.529Z,15.63
2018-01-17T09:40:52.940Z,18.58
2018-01-17T09:43:20.391Z,16.00
2018-01-17T09:45:47.772Z,15.15
2018-01-17T09:48:15.185Z,15.75
2018-01-17T09:50:42.596Z,14.68
2018-01-17T09:53:10.021Z,16.95
2018-01-17T09:55:37.470Z,15.27
2018-01-17T09:58:04.845Z,14.77
2018-01-17T10:00:32.266Z,15.52
2018-01-17T10:02:59.673Z,15.63
2018-01-17T10:05:27.085Z,15.05
2018-01-17T10:07:54.865Z,17.40
2018-01-17T10:10:22.277Z,18.27
2018-01-17T10:12:49.689Z,16.05
2018-01-17T10:15:17.412Z,15.55
2018-01-17T10:17:44.870Z,15.70
2018-01-17T10:20:12.277Z,17.67
2018-01-17T10:22:39.717Z,17.10
2018-01-17T10:25:07.148Z,17.35
2018-01-17T10:27:34.587Z,16.80
2018-01-17T10:30:02.445Z,16.77
2018-01-17T10:32:29.873Z,15.70
2018-01-17T10:34:57.315Z,18.35
2018-01-17T10:37:24.736Z,18.85
2018-01-17T10:39:52.156Z,21.98
2018-01-17T10:42:19.565Z,20.25
2018-01-17T10:44:47.077Z,20.60
2018-01-17T10:47:14.508Z,19.73
2018-01-17T10:49:41.900Z,20.83
2018-01-17T10:52:09.337Z,19.37
2018-01-17T10:54:36.776Z,17.02
2018-01-17T10:57:04.196Z,16.60
2018-01-17T10:59:31.627Z,17.65
2018-01-17T11:01:59.057Z,19.55
2018-01-17T11:04:26.465Z,18.15
2018-01-17T11:06:53.885Z,17.55
2018-01-17T11:09:21.341Z,19.80
2018-01-17T11:11:48.753Z,16.92
2018-01-17T11:14:16.160Z,17.90
2018-01-17T11:16:43.572Z,18.75
2018-01-17T11:19:11.005Z,18.65
2018-01-17T11:21:38.468Z,18.37
2018-01-17T11:24:05.872Z,15.98
2018-01-17T11:26:33.344Z,15.50
2018-01-17T11:29:00.824Z,17.20
2018-01-17T11:31:28.221Z,14.20
2018-01-17T11:33:55.640Z,14.98
2018-01-17T11:36:23.065Z,16.25
2018-01-17T11:38:50.476Z,15.55
2018-01-17T11:41:17.881Z,15.77
2018-01-17T11:43:45.300Z,16.02
2018-01-17T11:46:12.717Z,17.17
2018-01-17T11:48:40.129Z,17.65
2018-01-17T11:51:07.560Z,15.55
2018-01-17T11:53:34.978Z,14.40
2018-01-17T11:56:02.389Z,14.70
2018-01-17T11:58:29.809Z,14.93
2018-01-17T12:00:57.228Z,14.20
2018-01-17T12:03:24.640Z,15.02
2018-01-17T12:05:52.059Z,14.93
2018-01-17T12:08:19.477Z,22.25
2018-01-17T12:10:46.889Z,14.68
2018-01-17T12:13:14.319Z,13.40
2018-01-17T12:15:41.734Z,18.17
2018-01-17T12:18:09.153Z,15.40
2018-01-17T12:20:36.880Z,14.57
2018-01-17T12:23:04.285Z,15.48
2018-01-17T12:25:31.700Z,15.05
2018-01-17T12:27:59.120Z,13.65
2018-01-17T12:30:27.409Z,14.02
2018-01-17T12:32:54.825Z,14.45
2018-01-17T12:35:22.614Z,13.20
2018-01-17T12:37:50.021Z,14.15
2018-01-17T12:40:17.432Z,13.82
2018-01-17T12:42:44.861Z,14.40
2018-01-17T12:45:12.276Z,12.88
2018-01-17T12:47:39.689Z,16.70
2018-01-17T12:50:07.131Z,14.85
2018-01-17T12:52:34.545Z,14.65
2018-01-17T12:55:01.970Z,15.90
2018-01-17T12:57:29.398Z,15.73
2018-01-17T12:59:56.809Z,15.10
2018-01-17T13:02:24.221Z,14.23
2018-01-17T13:04:51.652Z,13.88
2018-01-17T13:07:19.073Z,14.20
2018-01-17T13:09:46.484Z,14.63
2018-01-17T13:12:13.952Z,15.60
2018-01-17T13:14:41.351Z,13.30
2018-01-17T13:17:08.761Z,14.70
2018-01-17T13:19:36.189Z,21.73
2018-01-17T13:22:03.601Z,19.02
2018-01-17T13:24:31.066Z,19.52
2018-01-17T13:26:58.457Z,23.58
2018-01-17T13:29:25.866Z,19.05
2018-01-17T13:31:53.277Z,17.70
2018-01-17T13:34:20.720Z,16.17
2018-01-17T13:36:48.115Z,14.80
2018-01-17T13:39:15.575Z,13.70
2018-01-17T13:41:42.988Z,15.77
2018-01-17T13:44:10.438Z,24.00
2018-01-17T13:46:37.877Z,18.27
2018-01-17T13:49:05.697Z,18.60
2018-01-17T13:51:33.109Z,14.00
2018-01-17T13:54:00.541Z,16.87
2018-01-17T13:56:27.965Z,15.45
2018-01-17T13:58:55.381Z,14.03
2018-01-17T14:01:22.802Z,16.70
2018-01-17T14:03:50.231Z,20.85
2018-01-17T14:06:17.640Z,15.32
2018-01-17T14:08:45.077Z,16.17
2018-01-17T14:11:12.798Z,13.70
2018-01-17T14:13:40.275Z,14.68
2018-01-17T14:16:07.676Z,18.65
2018-01-17T14:18:35.177Z,16.92
2018-01-17T14:21:02.594Z,17.37
2018-01-17T14:23:30.082Z,21.08
2018-01-17T14:25:57.481Z,18.85
2018-01-17T14:28:24.897Z,14.63
2018-01-17T14:30:52.345Z,12.50
2018-01-17T14:33:19.788Z,14.05
2018-01-17T14:35:47.254Z,14.75
2018-01-17T14:38:14.674Z,13.82
2018-01-17T14:40:42.498Z,13.70
2018-01-17T14:43:15.832Z,16.62
2018-01-17T14:45:43.255Z,15.05
2018-01-17T14:48:10.667Z,13.20
2018-01-17T14:50:38.077Z,12.95
2018-01-17T14:53:05.520Z,14.52
2018-01-17T14:55:32.926Z,14.07
2018-01-17T14:58:00.337Z,13.30
2018-01-17T15:00:28.092Z,15.63
2018-01-17T15:02:55.504Z,15.32
2018-01-17T15:05:22.916Z,15.85
2018-01-17T15:07:50.609Z,17.90
2018-01-17T15:10:18.021Z,16.30
2018-01-17T15:12:45.437Z,16.37
2018-01-17T15:15:12.865Z,15.77
2018-01-17T15:17:40.277Z,16.50
2018-01-17T15:20:07.685Z,15.30
2018-01-17T15:22:35.105Z,16.17
2018-01-17T15:25:02.525Z,15.18
2018-01-17T15:27:29.952Z,15.07
2018-01-17T15:29:57.382Z,15.85
2018-01-17T15:32:24.798Z,15.65
2018-01-17T15:34:52.216Z,14.98
2018-01-17T15:37:19.633Z,16.02
2018-01-17T15:39:47.050Z,18.27
2018-01-17T15:42:14.484Z,18.20
2018-01-17T15:44:42.321Z,14.65
2018-01-17T15:47:09.732Z,20.70
2018-01-17T15:49:37.181Z,20.85
2018-01-17T15:52:05.097Z,22.75
2018-01-17T15:54:32.509Z,20.73
2018-01-17T15:56:59.977Z,14.73
2018-01-17T15:59:27.400Z,14.48
2018-01-17T16:01:54.854Z,19.45
2018-01-17T16:04:22.266Z,17.20
2018-01-17T16:06:50.149Z,14.77
2018-01-17T16:09:17.549Z,22.65
2018-01-17T16:11:44.965Z,15.77
2018-01-17T16:14:12.393Z,20.05
2018-01-17T16:16:39.804Z,20.83
2018-01-17T16:19:07.226Z,19.83
2018-01-17T16:21:34.644Z,17.98
2018-01-17T16:24:02.056Z,18.30
2018-01-17T16:26:29.487Z,17.60
2018-01-17T16:28:56.913Z,16.87
2018-01-17T16:31:24.338Z,16.77
2018-01-17T16:33:51.747Z,16.27
2018-01-17T16:36:19.165Z,16.92
2018-01-17T16:38:46.586Z,16.50
2018-01-17T16:41:14.101Z,18.20
2018-01-17T16:43:41.526Z,16.02
2018-01-17T16:46:09.025Z,22.95
2018-01-17T16:48:36.430Z,22.20
2018-01-17T16:51:03.853Z,14.48
2018-01-17T16:53:31.273Z,15.95
2018-01-17T16:55:58.689Z,14.57
2018-01-17T16:58:26.127Z,17.45
2018-01-17T17:00:53.574Z,18.73
2018-01-17T17:03:20.949Z,23.10
2018-01-17T17:05:48.377Z,23.12
2018-01-17T17:08:15.788Z,14.00
2018-01-17T17:10:43.213Z,14.95
2018-01-17T17:13:10.646Z,15.73
2018-01-17T17:15:38.058Z,17.05
2018-01-17T17:18:05.472Z,21.12
2018-01-17T17:20:32.913Z,13.62
2018-01-17T17:23:00.333Z,19.58
2018-01-17T17:25:27.736Z,14.48
2018-01-17T17:27:55.161Z,16.48
2018-01-17T17:30:22.577Z,14.38
2018-01-17T17:32:49.993Z,18.58
2018-01-17T17:35:17.431Z,21.27
2018-01-17T17:37:44.836Z,16.67
2018-01-17T17:40:12.249Z,16.33
2018-01-17T17:42:39.977Z,14.35
2018-01-17T17:45:07.392Z,15.20
2018-01-17T17:47:34.810Z,17.02
2018-01-17T17:50:02.242Z,14.20
2018-01-17T17:52:29.657Z,18.42
2018-01-17T17:54:57.085Z,16.58
2018-01-17T17:57:24.510Z,14.75
2018-01-17T17:59:51.921Z,15.45
2018-01-17T18:02:19.337Z,14.70
2018-01-17T18:04:46.757Z,16.42
2018-01-17T18:07:14.179Z,19.30
2018-01-17T18:09:41.586Z,12.37
2018-01-17T18:12:09.016Z,18.10
2018-01-17T18:14:36.429Z,14.40
2018-01-17T18:17:03.845Z,15.50
2018-01-17T18:19:31.269Z,18.90
2018-01-17T18:21:58.685Z,18.87
2018-01-17T18:24:26.100Z,17.67
2018-01-17T18:26:53.528Z,18.67
2018-01-17T18:29:20.949Z,13.45
2018-01-17T18:31:48.364Z,14.73
2018-01-17T18:34:15.780Z,16.15
2018-01-17T18:36:43.185Z,15.40
2018-01-17T18:39:10.595Z,18.30
2018-01-17T18:41:38.005Z,12.43
2018-01-17T18:44:05.417Z,17.52
2018-01-17T18:46:32.821Z,21.63
2018-01-17T18:49:00.578Z,19.42
2018-01-17T18:51:27.999Z,17.58
2018-01-17T18:53:55.417Z,20.30
2018-01-17T18:56:23.137Z,13.50
2018-01-17T18:58:50.536Z,16.30
2018-01-17T19:01:17.948Z,17.63
2018-01-17T19:03:45.377Z,17.37
2018-01-17T19:06:12.804Z,22.95
2018-01-17T19:08:40.212Z,19.03
2018-01-17T19:11:07.641Z,13.43
2018-01-17T19:13:35.054Z,13.97
2018-01-17T19:16:02.458Z,15.60
2018-01-17T19:18:29.892Z,15.30
2018-01-17T19:20:57.297Z,13.10
2018-01-17T19:23:24.729Z,17.20
2018-01-17T19:25:52.149Z,16.43
2018-01-17T19:28:19.564Z,20.37
2018-01-17T19:30:46.989Z,20.33
2018-01-17T19:33:14.721Z,13.65
2018-01-17T19:35:42.132Z,16.23
2018-01-17T19:38:09.549Z,17.90
2018-01-17T19:40:37.254Z,17.83
2018-01-17T19:43:04.660Z,13.90
2018-01-17T19:45:35.853Z,16.40
2018-01-17T19:48:03.313Z,21.23
2018-01-17T19:50:30.812Z,19.48
2018-01-17T19:52:58.213Z,20.70
2018-01-17T19:55:26.040Z,15.93
2018-01-17T19:57:53.448Z,14.67
2018-01-17T20:00:20.853Z,22.87
2018-01-17T20:02:48.598Z,15.70
2018-01-17T20:05:16.942Z,16.40
2018-01-17T20:07:45.213Z,18.98
2018-01-17T20:10:13.021Z,22.50
2018-01-17T20:12:46.779Z,26.93
2018-01-17T20:15:14.208Z,16.43
2018-01-17T20:17:41.617Z,18.60
2018-01-17T20:20:09.028Z,16.77
2018-01-17T20:22:42.129Z,20.53
2018-01-17T20:25:09.538Z,19.80
2018-01-17T20:27:37.000Z,21.50
2018-01-17T20:30:04.385Z,16.95
2018-01-17T20:32:31.801Z,20.37
2018-01-17T20:34:59.237Z,17.73
2018-01-17T20:37:26.684Z,21.90
2018-01-17T20:39:54.101Z,14.70
2018-01-17T20:42:21.529Z,23.13
2018-01-17T20:44:49.297Z,24.03
2018-01-17T20:47:16.751Z,26.05
2018-01-17T20:49:44.160Z,23.48
2018-01-17T20:52:11.606Z,19.30
2018-01-17T20:54:39.015Z,25.30
2018-01-17T20:57:06.433Z,24.90
2018-01-17T20:59:33.986Z,24.50
2018-01-17T21:02:01.327Z,26.93
2018-01-17T21:04:28.746Z,23.20
2018-01-17T21:06:56.177Z,24.58
2018-01-17T21:09:23.622Z,23.40
2018-01-17T21:11:51.028Z,26.30
2018-01-17T21:14:18.448Z,22.23
2018-01-17T21:16:45.853Z,24.00
2018-01-17T21:19:13.281Z,21.95
2018-01-17T21:21:40.706Z,29.07
2018-01-17T21:24:08.129Z,24.35
2018-01-17T21:26:35.533Z,25.07
2018-01-17T21:29:03.333Z,25.93
2018-01-17T21:31:30.801Z,22.40
2018-01-17T21:33:58.209Z,24.83
2018-01-17T21:36:25.625Z,20.23
2018-01-17T21:38:53.037Z,21.73
2018-01-17T21:41:20.490Z,21.73
2018-01-17T21:43:53.442Z,25.77
2018-01-17T21:46:20.851Z,18.90
2018-01-17T21:48:48.250Z,21.53
2018-01-17T21:51:15.695Z,18.30
2018-01-17T21:53:43.128Z,27.40
2018-01-17T21:56:10.585Z,25.27
2018-01-17T21:58:38.001Z,32.00
2018-01-17T22:01:05.456Z,22.47
2018-01-17T22:03:32.861Z,24.70
2018-01-17T22:06:00.790Z,17.93
2018-01-17T22:08:28.165Z,24.63
2018-01-17T22:10:55.593Z,28.43
2018-01-17T22:13:23.008Z,26.57
2018-01-17T22:15:50.412Z,20.30
2018-01-17T22:18:17.825Z,17.50
2018-01-17T22:20:45.645Z,19.80
2018-01-17T22:23:13.054Z,27.17
2018-01-17T22:25:40.458Z,27.57
2018-01-17T22:28:07.885Z,25.37
2018-01-17T22:30:35.309Z,20.87
2018-01-17T22:33:02.704Z,18.87
2018-01-17T22:35:30.138Z,22.67
2018-01-17T22:37:57.560Z,19.45
2018-01-17T22:40:24.990Z,22.80
2018-01-17T22:42:52.750Z,22.80
2018-01-17T22:45:20.158Z,16.90
2018-01-17T22:47:47.562Z,30.07
2018-01-17T22:50:15.441Z,30.50
2018-01-17T22:52:42.845Z,20.47
2018-01-17T22:55:10.269Z,22.40
2018-01-17T22:57:37.695Z,16.37
2018-01-17T23:00:05.098Z,21.63
2018-01-17T23:02:32.508Z,20.27
2018-01-17T23:05:00.291Z,19.50
2018-01-17T23:07:27.700Z,30.62
2018-01-17T23:09:55.117Z,17.83
2018-01-17T23:12:22.551Z,21.30
2018-01-17T23:14:49.958Z,21.67
2018-01-17T23:17:17.369Z,19.47
2018-01-17T23:19:45.097Z,17.33
2018-01-17T23:22:12.496Z,20.55
2018-01-17T23:24:39.901Z,17.20
2018-01-17T23:27:07.813Z,25.03
2018-01-17T23:29:35.245Z,22.67
2018-01-17T23:32:02.637Z,14.00
2018-01-17T23:34:30.396Z,18.75
2018-01-17T23:36:57.855Z,19.50
2018-01-17T23:39:25.271Z,23.43
2018-01-17T23:41:52.684Z,19.03
2018-01-17T23:44:20.105Z,30.07
2018-01-17T23:46:47.513Z,24.90
2018-01-17T23:49:14.953Z,21.10
2018-01-17T23:51:42.357Z,17.87
2018-01-17T23:54:09.815Z,22.25
2018-01-17T23:56:37.237Z,22.87
2018-01-17T23:59:04.646Z,18.03
